sensor_id;sensor_type;location;lat;lon;timestamp;temperature;humidity
20041;DHT22;10181;48.072;9.884;2023-11-25T00:00:43;0.80;99.90
20041;DHT22;10181;48.072;9.884;2023-11-25T00:03:08;0.70;99.90
20041;DHT22;10181;48.072;9.884;2023-11-25T00:05:34;0.70;99.90
20041;DHT22;10181;48.072;9.884;2023-11-25T00:08:00;0.70;99.90
20041;DHT22;10181;48.072;9.884;2023-11-25T00:10:26;0.70;99.90
20041;DHT22;10181;48.072;9.884;2023-11-25T00:12:51;0.70;99.90
20041;DHT22;10181;48.072;9.884;2023-11-25T00:15:17;0.70;99.90
20041;DHT22;10181;48.072;9.884;2023-11-25T00:17:42;0.60;99.90
20041;DHT22;10181;48.072;9.884;2023-11-25T00:20:08;0.70;99.90
20041;DHT22;10181;48.072;9.884;2023-11-25T00:22:34;0.70;99.90
20041;DHT22;10181;48.072;9.884;2023-11-25T00:25:01;0.70;99.90
20041;DHT22;10181;48.072;9.884;2023-11-25T00:27:26;0.70;99.90
20041;DHT22;10181;48.072;9.884;2023-11-25T00:29:53;0.60;99.90
20041;DHT22;10181;48.072;9.884;2023-11-25T00:32:18;0.70;99.90
20041;DHT22;10181;48.072;9.884;2023-11-25T00:34:45;0.70;99.90
20041;DHT22;10181;48.072;9.884;2023-11-25T00:37:11;0.70;99.90
20041;DHT22;10181;48.072;9.884;2023-11-25T00:39:37;0.70;99.90
20041;DHT22;10181;48.072;9.884;2023-11-25T00:42:04;0.70;99.90
20041;DHT22;10181;48.072;9.884;2023-11-25T00:44:30;0.70;99.90
20041;DHT22;10181;48.072;9.884;2023-11-25T00:46:55;0.70;99.90
20041;DHT22;10181;48.072;9.884;2023-11-25T00:49:21;0.80;99.90
20041;DHT22;10181;48.072;9.884;2023-11-25T00:51:47;0.80;99.90
20041;DHT22;10181;48.072;9.884;2023-11-25T00:54:12;0.70;99.90
20041;DHT22;10181;48.072;9.884;2023-11-25T00:56:38;0.70;99.90
20041;DHT22;10181;48.072;9.884;2023-11-25T00:59:03;0.70;99.90
20041;DHT22;10181;48.072;9.884;2023-11-25T01:01:29;0.80;99.90
20041;DHT22;10181;48.072;9.884;2023-11-25T01:03:56;0.70;99.90
20041;DHT22;10181;48.072;9.884;2023-11-25T01:06:21;0.70;99.90
20041;DHT22;10181;48.072;9.884;2023-11-25T01:08:47;0.60;99.90
20041;DHT22;10181;48.072;9.884;2023-11-25T01:11:15;0.60;99.90
20041;DHT22;10181;48.072;9.884;2023-11-25T01:13:41;0.60;99.90
20041;DHT22;10181;48.072;9.884;2023-11-25T01:16:15;0.60;99.90
20041;DHT22;10181;48.072;9.884;2023-11-25T01:18:42;0.50;99.90
20041;DHT22;10181;48.072;9.884;2023-11-25T01:21:07;0.50;99.90
20041;DHT22;10181;48.072;9.884;2023-11-25T01:23:33;0.60;99.90
20041;DHT22;10181;48.072;9.884;2023-11-25T01:25:58;0.60;99.90
20041;DHT22;10181;48.072;9.884;2023-11-25T01:28:24;0.60;99.90
20041;DHT22;10181;48.072;9.884;2023-11-25T01:30:50;0.60;99.90
20041;DHT22;10181;48.072;9.884;2023-11-25T01:33:15;0.60;99.90
20041;DHT22;10181;48.072;9.884;2023-11-25T01:35:41;0.60;99.90
20041;DHT22;10181;48.072;9.884;2023-11-25T01:38:09;0.60;99.90
20041;DHT22;10181;48.072;9.884;2023-11-25T01:40:34;0.60;99.90
20041;DHT22;10181;48.072;9.884;2023-11-25T01:43:06;0.60;99.90
20041;DHT22;10181;48.072;9.884;2023-11-25T01:45:33;0.50;99.90
20041;DHT22;10181;48.072;9.884;2023-11-25T01:47:59;0.50;99.90
20041;DHT22;10181;48.072;9.884;2023-11-25T01:50:29;0.50;99.90
20041;DHT22;10181;48.072;9.884;2023-11-25T01:52:59;0.50;99.90
20041;DHT22;10181;48.072;9.884;2023-11-25T01:55:25;0.50;99.90
20041;DHT22;10181;48.072;9.884;2023-11-25T01:57:53;0.50;99.90
20041;DHT22;10181;48.072;9.884;2023-11-25T02:00:20;0.50;99.90
20041;DHT22;10181;48.072;9.884;2023-11-25T02:02:49;0.50;99.90
20041;DHT22;10181;48.072;9.884;2023-11-25T02:05:15;0.50;99.90
20041;DHT22;10181;48.072;9.884;2023-11-25T02:07:41;0.50;99.90
20041;DHT22;10181;48.072;9.884;2023-11-25T02:10:07;0.50;99.90
20041;DHT22;10181;48.072;9.884;2023-11-25T02:12:36;0.50;99.90
20041;DHT22;10181;48.072;9.884;2023-11-25T02:15:05;0.40;99.90
20041;DHT22;10181;48.072;9.884;2023-11-25T02:17:37;0.40;99.90
20041;DHT22;10181;48.072;9.884;2023-11-25T02:20:05;0.40;99.90
20041;DHT22;10181;48.072;9.884;2023-11-25T02:22:31;0.40;99.90
20041;DHT22;10181;48.072;9.884;2023-11-25T02:24:57;0.50;99.90
20041;DHT22;10181;48.072;9.884;2023-11-25T02:27:22;0.40;99.90
20041;DHT22;10181;48.072;9.884;2023-11-25T02:29:49;0.40;99.90
20041;DHT22;10181;48.072;9.884;2023-11-25T02:32:15;0.40;99.90
20041;DHT22;10181;48.072;9.884;2023-11-25T02:34:40;0.40;99.90
20041;DHT22;10181;48.072;9.884;2023-11-25T02:37:06;0.40;99.90
20041;DHT22;10181;48.072;9.884;2023-11-25T02:39:32;0.30;99.90
20041;DHT22;10181;48.072;9.884;2023-11-25T02:41:59;0.30;99.90
20041;DHT22;10181;48.072;9.884;2023-11-25T02:44:25;0.30;99.90
20041;DHT22;10181;48.072;9.884;2023-11-25T02:46:52;0.20;99.90
20041;DHT22;10181;48.072;9.884;2023-11-25T02:49:19;0.10;99.90
20041;DHT22;10181;48.072;9.884;2023-11-25T02:51:50;0.10;99.90
20041;DHT22;10181;48.072;9.884;2023-11-25T02:54:22;0.00;99.90
20041;DHT22;10181;48.072;9.884;2023-11-25T02:56:48;0.00;99.90
20041;DHT22;10181;48.072;9.884;2023-11-25T02:59:16;0.00;99.90
20041;DHT22;10181;48.072;9.884;2023-11-25T03:01:43;0.00;99.90
20041;DHT22;10181;48.072;9.884;2023-11-25T03:04:21;0.00;99.90
20041;DHT22;10181;48.072;9.884;2023-11-25T03:06:49;-0.10;99.90
20041;DHT22;10181;48.072;9.884;2023-11-25T03:09:16;-0.10;99.90
20041;DHT22;10181;48.072;9.884;2023-11-25T03:11:43;-0.10;99.90
20041;DHT22;10181;48.072;9.884;2023-11-25T03:14:09;-0.20;99.90
20041;DHT22;10181;48.072;9.884;2023-11-25T03:16:35;-0.20;99.90
20041;DHT22;10181;48.072;9.884;2023-11-25T03:19:01;-0.20;99.90
20041;DHT22;10181;48.072;9.884;2023-11-25T03:21:26;-0.30;99.90
20041;DHT22;10181;48.072;9.884;2023-11-25T03:23:53;-0.30;99.90
20041;DHT22;10181;48.072;9.884;2023-11-25T03:26:19;-0.30;99.90
20041;DHT22;10181;48.072;9.884;2023-11-25T03:28:44;-0.30;99.90
20041;DHT22;10181;48.072;9.884;2023-11-25T03:31:11;-0.30;99.90
20041;DHT22;10181;48.072;9.884;2023-11-25T03:33:37;-0.20;99.90
20041;DHT22;10181;48.072;9.884;2023-11-25T03:36:03;-0.20;99.90
20041;DHT22;10181;48.072;9.884;2023-11-25T03:38:29;-0.20;99.90
20041;DHT22;10181;48.072;9.884;2023-11-25T03:40:59;-0.20;99.90
20041;DHT22;10181;48.072;9.884;2023-11-25T03:43:24;-0.20;99.90
20041;DHT22;10181;48.072;9.884;2023-11-25T03:45:50;-0.20;99.90
20041;DHT22;10181;48.072;9.884;2023-11-25T03:48:16;-0.30;99.90
20041;DHT22;10181;48.072;9.884;2023-11-25T03:50:42;-0.20;99.90
20041;DHT22;10181;48.072;9.884;2023-11-25T03:53:08;-0.30;99.90
20041;DHT22;10181;48.072;9.884;2023-11-25T03:55:34;-0.30;99.90
20041;DHT22;10181;48.072;9.884;2023-11-25T03:57:59;-0.30;99.90
20041;DHT22;10181;48.072;9.884;2023-11-25T04:00:27;-0.40;99.90
20041;DHT22;10181;48.072;9.884;2023-11-25T04:02:53;-0.40;99.90
20041;DHT22;10181;48.072;9.884;2023-11-25T04:05:19;-0.40;99.90
20041;DHT22;10181;48.072;9.884;2023-11-25T04:07:45;-0.40;99.90
20041;DHT22;10181;48.072;9.884;2023-11-25T04:10:12;-0.40;99.90
20041;DHT22;10181;48.072;9.884;2023-11-25T04:12:43;-0.50;99.90
20041;DHT22;10181;48.072;9.884;2023-11-25T04:15:10;-0.50;99.90
20041;DHT22;10181;48.072;9.884;2023-11-25T04:17:36;-0.50;99.90
20041;DHT22;10181;48.072;9.884;2023-11-25T04:20:03;-0.60;99.90
20041;DHT22;10181;48.072;9.884;2023-11-25T04:22:47;-0.60;99.90
20041;DHT22;10181;48.072;9.884;2023-11-25T04:25:14;-0.60;99.90
20041;DHT22;10181;48.072;9.884;2023-11-25T04:27:45;-0.60;99.90
20041;DHT22;10181;48.072;9.884;2023-11-25T04:30:13;-0.60;99.90
20041;DHT22;10181;48.072;9.884;2023-11-25T04:32:40;-0.70;99.90
20041;DHT22;10181;48.072;9.884;2023-11-25T04:35:07;-0.70;99.90
20041;DHT22;10181;48.072;9.884;2023-11-25T04:37:33;-0.70;99.90
20041;DHT22;10181;48.072;9.884;2023-11-25T04:39:59;-0.70;99.90
20041;DHT22;10181;48.072;9.884;2023-11-25T04:42:25;-0.70;99.90
20041;DHT22;10181;48.072;9.884;2023-11-25T04:44:51;-0.80;99.90
20041;DHT22;10181;48.072;9.884;2023-11-25T04:47:16;-0.80;99.90
20041;DHT22;10181;48.072;9.884;2023-11-25T04:49:42;-0.80;99.90
20041;DHT22;10181;48.072;9.884;2023-11-25T04:52:08;-0.80;99.90
20041;DHT22;10181;48.072;9.884;2023-11-25T04:54:34;-0.80;99.90
20041;DHT22;10181;48.072;9.884;2023-11-25T04:56:59;-0.80;99.90
20041;DHT22;10181;48.072;9.884;2023-11-25T04:59:27;-0.90;99.90
20041;DHT22;10181;48.072;9.884;2023-11-25T05:01:53;-0.90;99.90
20041;DHT22;10181;48.072;9.884;2023-11-25T05:04:18;-0.90;99.90
20041;DHT22;10181;48.072;9.884;2023-11-25T05:06:46;-0.90;99.90
20041;DHT22;10181;48.072;9.884;2023-11-25T05:09:12;-0.90;99.90
20041;DHT22;10181;48.072;9.884;2023-11-25T05:11:39;-0.90;99.90
20041;DHT22;10181;48.072;9.884;2023-11-25T05:14:06;-0.90;99.90
20041;DHT22;10181;48.072;9.884;2023-11-25T05:16:31;-0.90;99.90
20041;DHT22;10181;48.072;9.884;2023-11-25T05:18:57;-0.90;99.90
20041;DHT22;10181;48.072;9.884;2023-11-25T05:21:22;-0.90;99.90
20041;DHT22;10181;48.072;9.884;2023-11-25T05:23:48;-0.80;99.90
20041;DHT22;10181;48.072;9.884;2023-11-25T05:26:15;-0.80;99.90
20041;DHT22;10181;48.072;9.884;2023-11-25T05:28:41;-0.80;99.90
20041;DHT22;10181;48.072;9.884;2023-11-25T05:31:06;-0.80;99.90
20041;DHT22;10181;48.072;9.884;2023-11-25T05:33:32;-0.80;99.90
20041;DHT22;10181;48.072;9.884;2023-11-25T05:35:58;-0.80;99.90
20041;DHT22;10181;48.072;9.884;2023-11-25T05:38:26;-0.70;99.90
20041;DHT22;10181;48.072;9.884;2023-11-25T05:40:52;-0.60;99.90
20041;DHT22;10181;48.072;9.884;2023-11-25T05:43:18;-0.70;99.90
20041;DHT22;10181;48.072;9.884;2023-11-25T05:45:44;-0.70;99.90
20041;DHT22;10181;48.072;9.884;2023-11-25T05:48:14;-0.70;99.90
20041;DHT22;10181;48.072;9.884;2023-11-25T05:50:40;-0.70;99.90
20041;DHT22;10181;48.072;9.884;2023-11-25T05:53:05;-0.70;99.90
20041;DHT22;10181;48.072;9.884;2023-11-25T05:55:31;-0.70;99.90
20041;DHT22;10181;48.072;9.884;2023-11-25T05:57:57;-0.70;99.90
20041;DHT22;10181;48.072;9.884;2023-11-25T06:00:23;-0.70;99.90
20041;DHT22;10181;48.072;9.884;2023-11-25T06:02:48;-0.70;99.90
20041;DHT22;10181;48.072;9.884;2023-11-25T06:05:15;-0.80;99.90
20041;DHT22;10181;48.072;9.884;2023-11-25T06:07:40;-0.80;99.90
20041;DHT22;10181;48.072;9.884;2023-11-25T06:10:06;-0.80;99.90
20041;DHT22;10181;48.072;9.884;2023-11-25T06:12:32;-0.80;99.90
20041;DHT22;10181;48.072;9.884;2023-11-25T06:14:58;-0.90;99.90
20041;DHT22;10181;48.072;9.884;2023-11-25T06:17:24;-0.90;99.90
20041;DHT22;10181;48.072;9.884;2023-11-25T06:19:51;-0.90;99.90
20041;DHT22;10181;48.072;9.884;2023-11-25T06:22:17;-0.90;99.90
20041;DHT22;10181;48.072;9.884;2023-11-25T06:24:43;-0.90;99.90
20041;DHT22;10181;48.072;9.884;2023-11-25T06:27:08;-0.90;99.90
20041;DHT22;10181;48.072;9.884;2023-11-25T06:29:34;-1.00;99.90
20041;DHT22;10181;48.072;9.884;2023-11-25T06:32:00;-1.00;99.90
20041;DHT22;10181;48.072;9.884;2023-11-25T06:34:26;-1.00;99.90
20041;DHT22;10181;48.072;9.884;2023-11-25T06:36:51;-1.00;99.90
20041;DHT22;10181;48.072;9.884;2023-11-25T06:39:17;-1.10;99.90
20041;DHT22;10181;48.072;9.884;2023-11-25T06:41:48;-1.10;99.90
20041;DHT22;10181;48.072;9.884;2023-11-25T06:44:17;-1.10;99.90
20041;DHT22;10181;48.072;9.884;2023-11-25T06:46:43;-1.10;99.90
20041;DHT22;10181;48.072;9.884;2023-11-25T06:49:09;-1.10;99.90
20041;DHT22;10181;48.072;9.884;2023-11-25T06:51:38;-1.10;99.90
20041;DHT22;10181;48.072;9.884;2023-11-25T06:54:03;-1.10;99.90
20041;DHT22;10181;48.072;9.884;2023-11-25T06:56:29;-1.10;99.90
20041;DHT22;10181;48.072;9.884;2023-11-25T06:58:54;-1.10;99.90
20041;DHT22;10181;48.072;9.884;2023-11-25T07:01:21;-1.00;99.90
20041;DHT22;10181;48.072;9.884;2023-11-25T07:03:49;-1.00;99.90
20041;DHT22;10181;48.072;9.884;2023-11-25T07:06:15;-1.00;99.90
20041;DHT22;10181;48.072;9.884;2023-11-25T07:08:44;-1.00;99.90
20041;DHT22;10181;48.072;9.884;2023-11-25T07:11:10;-1.00;99.90
20041;DHT22;10181;48.072;9.884;2023-11-25T07:13:39;-1.10;99.90
20041;DHT22;10181;48.072;9.884;2023-11-25T07:16:05;-1.10;99.90
20041;DHT22;10181;48.072;9.884;2023-11-25T07:18:32;-1.10;99.90
20041;DHT22;10181;48.072;9.884;2023-11-25T07:20:58;-1.10;99.90
20041;DHT22;10181;48.072;9.884;2023-11-25T07:23:25;-1.10;99.90
20041;DHT22;10181;48.072;9.884;2023-11-25T07:25:51;-1.10;99.90
20041;DHT22;10181;48.072;9.884;2023-11-25T07:28:17;-1.10;99.90
20041;DHT22;10181;48.072;9.884;2023-11-25T07:30:43;-1.10;99.90
20041;DHT22;10181;48.072;9.884;2023-11-25T07:33:09;-1.10;99.90
20041;DHT22;10181;48.072;9.884;2023-11-25T07:35:36;-1.00;99.90
20041;DHT22;10181;48.072;9.884;2023-11-25T07:38:02;-1.00;99.90
20041;DHT22;10181;48.072;9.884;2023-11-25T07:40:30;-1.00;99.90
20041;DHT22;10181;48.072;9.884;2023-11-25T07:42:56;-1.00;99.90
20041;DHT22;10181;48.072;9.884;2023-11-25T07:45:22;-1.00;99.90
20041;DHT22;10181;48.072;9.884;2023-11-25T07:47:47;-1.00;99.90
20041;DHT22;10181;48.072;9.884;2023-11-25T07:50:13;-1.00;99.90
20041;DHT22;10181;48.072;9.884;2023-11-25T07:52:39;-1.00;99.90
20041;DHT22;10181;48.072;9.884;2023-11-25T07:55:06;-0.90;99.90
20041;DHT22;10181;48.072;9.884;2023-11-25T07:57:32;-0.90;99.90
20041;DHT22;10181;48.072;9.884;2023-11-25T07:59:58;-0.90;99.90
20041;DHT22;10181;48.072;9.884;2023-11-25T08:02:24;-0.90;99.90
20041;DHT22;10181;48.072;9.884;2023-11-25T08:04:50;-0.90;99.90
20041;DHT22;10181;48.072;9.884;2023-11-25T08:07:16;-1.00;99.90
20041;DHT22;10181;48.072;9.884;2023-11-25T08:09:42;-1.10;99.90
20041;DHT22;10181;48.072;9.884;2023-11-25T08:12:08;-1.10;99.90
20041;DHT22;10181;48.072;9.884;2023-11-25T08:14:34;-1.10;99.90
20041;DHT22;10181;48.072;9.884;2023-11-25T08:17:01;-1.00;99.90
20041;DHT22;10181;48.072;9.884;2023-11-25T08:19:27;-1.00;99.90
20041;DHT22;10181;48.072;9.884;2023-11-25T08:21:57;-0.90;99.90
20041;DHT22;10181;48.072;9.884;2023-11-25T08:24:25;-0.80;99.90
20041;DHT22;10181;48.072;9.884;2023-11-25T08:26:54;-0.70;99.90
20041;DHT22;10181;48.072;9.884;2023-11-25T08:29:21;-0.60;99.90
20041;DHT22;10181;48.072;9.884;2023-11-25T08:31:47;-0.60;99.90
20041;DHT22;10181;48.072;9.884;2023-11-25T08:34:15;-0.60;99.90
20041;DHT22;10181;48.072;9.884;2023-11-25T08:36:41;-0.60;99.90
20041;DHT22;10181;48.072;9.884;2023-11-25T08:39:12;-0.70;99.90
20041;DHT22;10181;48.072;9.884;2023-11-25T08:41:40;-0.60;99.90
20041;DHT22;10181;48.072;9.884;2023-11-25T08:44:08;-0.60;99.90
20041;DHT22;10181;48.072;9.884;2023-11-25T08:46:38;-0.50;99.90
20041;DHT22;10181;48.072;9.884;2023-11-25T08:49:05;-0.50;99.90
20041;DHT22;10181;48.072;9.884;2023-11-25T08:51:32;-0.50;99.90
20041;DHT22;10181;48.072;9.884;2023-11-25T08:53:57;-0.50;99.90
20041;DHT22;10181;48.072;9.884;2023-11-25T08:56:23;-0.40;99.90
20041;DHT22;10181;48.072;9.884;2023-11-25T08:58:50;-0.50;99.90
20041;DHT22;10181;48.072;9.884;2023-11-25T09:01:16;-0.50;99.90
20041;DHT22;10181;48.072;9.884;2023-11-25T09:03:42;-0.40;99.90
20041;DHT22;10181;48.072;9.884;2023-11-25T09:06:08;-0.40;99.90
20041;DHT22;10181;48.072;9.884;2023-11-25T09:08:33;-0.40;99.90
20041;DHT22;10181;48.072;9.884;2023-11-25T09:10:59;-0.30;99.90
20041;DHT22;10181;48.072;9.884;2023-11-25T09:13:26;-0.30;99.90
20041;DHT22;10181;48.072;9.884;2023-11-25T09:15:52;-0.30;99.90
20041;DHT22;10181;48.072;9.884;2023-11-25T09:18:18;-0.30;99.90
20041;DHT22;10181;48.072;9.884;2023-11-25T09:20:44;-0.30;99.90
20041;DHT22;10181;48.072;9.884;2023-11-25T09:23:10;-0.30;99.90
20041;DHT22;10181;48.072;9.884;2023-11-25T09:25:36;-0.20;99.90
20041;DHT22;10181;48.072;9.884;2023-11-25T09:28:02;-0.20;99.90
20041;DHT22;10181;48.072;9.884;2023-11-25T09:30:29;-0.20;99.90
20041;DHT22;10181;48.072;9.884;2023-11-25T09:32:54;-0.10;99.90
20041;DHT22;10181;48.072;9.884;2023-11-25T09:35:20;0.00;99.90
20041;DHT22;10181;48.072;9.884;2023-11-25T09:37:47;0.00;99.90
20041;DHT22;10181;48.072;9.884;2023-11-25T09:40:16;0.00;99.90
20041;DHT22;10181;48.072;9.884;2023-11-25T09:42:43;0.00;99.90
20041;DHT22;10181;48.072;9.884;2023-11-25T09:45:10;0.10;99.90
20041;DHT22;10181;48.072;9.884;2023-11-25T09:47:40;0.10;99.90
20041;DHT22;10181;48.072;9.884;2023-11-25T09:50:09;0.20;99.90
20041;DHT22;10181;48.072;9.884;2023-11-25T09:53:02;0.30;99.90
20041;DHT22;10181;48.072;9.884;2023-11-25T09:55:30;0.30;99.90
20041;DHT22;10181;48.072;9.884;2023-11-25T09:58:02;0.40;99.90
20041;DHT22;10181;48.072;9.884;2023-11-25T10:00:31;0.40;99.90
20041;DHT22;10181;48.072;9.884;2023-11-25T10:02:57;0.50;99.90
20041;DHT22;10181;48.072;9.884;2023-11-25T10:05:25;0.60;99.90
20041;DHT22;10181;48.072;9.884;2023-11-25T10:07:50;0.70;99.90
20041;DHT22;10181;48.072;9.884;2023-11-25T10:10:16;0.70;99.90
20041;DHT22;10181;48.072;9.884;2023-11-25T10:12:51;0.70;99.90
20041;DHT22;10181;48.072;9.884;2023-11-25T10:15:17;0.80;99.90
20041;DHT22;10181;48.072;9.884;2023-11-25T10:17:43;0.80;99.90
20041;DHT22;10181;48.072;9.884;2023-11-25T10:20:12;0.90;99.90
20041;DHT22;10181;48.072;9.884;2023-11-25T10:22:54;1.00;99.90
20041;DHT22;10181;48.072;9.884;2023-11-25T10:25:23;1.00;99.90
20041;DHT22;10181;48.072;9.884;2023-11-25T10:27:51;1.00;99.90
20041;DHT22;10181;48.072;9.884;2023-11-25T10:30:17;1.00;99.90
20041;DHT22;10181;48.072;9.884;2023-11-25T10:32:43;1.20;99.90
20041;DHT22;10181;48.072;9.884;2023-11-25T10:35:09;1.30;99.90
20041;DHT22;10181;48.072;9.884;2023-11-25T10:37:38;1.30;99.90
20041;DHT22;10181;48.072;9.884;2023-11-25T10:40:07;1.20;99.90
20041;DHT22;10181;48.072;9.884;2023-11-25T10:42:35;1.20;99.90
20041;DHT22;10181;48.072;9.884;2023-11-25T10:45:01;1.20;99.90
20041;DHT22;10181;48.072;9.884;2023-11-25T10:47:31;1.20;99.90
20041;DHT22;10181;48.072;9.884;2023-11-25T10:49:58;1.20;99.90
20041;DHT22;10181;48.072;9.884;2023-11-25T10:52:24;1.30;99.90
20041;DHT22;10181;48.072;9.884;2023-11-25T10:54:50;1.20;99.90
20041;DHT22;10181;48.072;9.884;2023-11-25T10:57:18;1.20;99.90
20041;DHT22;10181;48.072;9.884;2023-11-25T10:59:45;1.20;99.90
20041;DHT22;10181;48.072;9.884;2023-11-25T11:02:36;1.20;99.90
20041;DHT22;10181;48.072;9.884;2023-11-25T11:05:08;1.20;99.90
20041;DHT22;10181;48.072;9.884;2023-11-25T11:07:41;1.30;99.90
20041;DHT22;10181;48.072;9.884;2023-11-25T11:10:11;1.40;99.90
20041;DHT22;10181;48.072;9.884;2023-11-25T11:12:51;1.20;99.90
20041;DHT22;10181;48.072;9.884;2023-11-25T11:15:18;1.20;99.90
20041;DHT22;10181;48.072;9.884;2023-11-25T11:17:58;1.20;99.90
20041;DHT22;10181;48.072;9.884;2023-11-25T11:20:32;1.30;99.90
20041;DHT22;10181;48.072;9.884;2023-11-25T11:23:02;1.30;99.90
20041;DHT22;10181;48.072;9.884;2023-11-25T11:26:21;1.20;99.90
20041;DHT22;10181;48.072;9.884;2023-11-25T11:28:39;1.20;99.90
20041;DHT22;10181;48.072;9.884;2023-11-25T11:31:52;1.20;99.90
20041;DHT22;10181;48.072;9.884;2023-11-25T11:34:29;1.20;99.90
20041;DHT22;10181;48.072;9.884;2023-11-25T11:36:55;1.20;99.90
20041;DHT22;10181;48.072;9.884;2023-11-25T11:44:59;1.20;99.90
20041;DHT22;10181;48.072;9.884;2023-11-25T11:47:53;1.20;99.90
20041;DHT22;10181;48.072;9.884;2023-11-25T11:50:26;1.10;99.90
20041;DHT22;10181;48.072;9.884;2023-11-25T12:03:08;1.20;99.90
20041;DHT22;10181;48.072;9.884;2023-11-25T12:05:35;1.10;99.90
20041;DHT22;10181;48.072;9.884;2023-11-25T12:08:01;1.10;99.90
20041;DHT22;10181;48.072;9.884;2023-11-25T12:10:27;1.20;99.90
20041;DHT22;10181;48.072;9.884;2023-11-25T12:12:53;1.30;99.90
20041;DHT22;10181;48.072;9.884;2023-11-25T12:15:19;1.40;99.90
20041;DHT22;10181;48.072;9.884;2023-11-25T12:17:46;1.40;99.90
20041;DHT22;10181;48.072;9.884;2023-11-25T12:20:14;1.50;99.90
20041;DHT22;10181;48.072;9.884;2023-11-25T12:22:42;1.50;99.90
20041;DHT22;10181;48.072;9.884;2023-11-25T12:25:08;1.30;99.90
20041;DHT22;10181;48.072;9.884;2023-11-25T12:27:44;1.40;99.90
20041;DHT22;10181;48.072;9.884;2023-11-25T12:30:12;1.30;99.90
20041;DHT22;10181;48.072;9.884;2023-11-25T12:32:37;1.30;99.90
20041;DHT22;10181;48.072;9.884;2023-11-25T12:35:04;1.30;99.90
20041;DHT22;10181;48.072;9.884;2023-11-25T12:37:31;1.30;99.90
20041;DHT22;10181;48.072;9.884;2023-11-25T12:40:22;1.30;99.90
20041;DHT22;10181;48.072;9.884;2023-11-25T12:42:53;1.30;99.90
20041;DHT22;10181;48.072;9.884;2023-11-25T12:48:00;1.30;99.90
20041;DHT22;10181;48.072;9.884;2023-11-25T12:50:27;1.30;99.90
20041;DHT22;10181;48.072;9.884;2023-11-25T12:53:21;1.30;99.90
20041;DHT22;10181;48.072;9.884;2023-11-25T12:55:47;1.30;99.90
20041;DHT22;10181;48.072;9.884;2023-11-25T12:58:18;1.40;99.90
20041;DHT22;10181;48.072;9.884;2023-11-25T13:00:46;1.40;99.90
20041;DHT22;10181;48.072;9.884;2023-11-25T13:03:25;1.40;99.90
20041;DHT22;10181;48.072;9.884;2023-11-25T13:08:29;1.40;99.90
20041;DHT22;10181;48.072;9.884;2023-11-25T13:10:57;1.40;99.90
20041;DHT22;10181;48.072;9.884;2023-11-25T13:13:24;1.30;99.90
20041;DHT22;10181;48.072;9.884;2023-11-25T13:15:51;1.30;99.90
20041;DHT22;10181;48.072;9.884;2023-11-25T13:18:19;1.40;99.90
20041;DHT22;10181;48.072;9.884;2023-11-25T13:20:45;1.40;99.90
20041;DHT22;10181;48.072;9.884;2023-11-25T13:23:11;1.40;99.90
20041;DHT22;10181;48.072;9.884;2023-11-25T13:25:36;1.40;99.90
20041;DHT22;10181;48.072;9.884;2023-11-25T13:28:02;1.40;99.90
20041;DHT22;10181;48.072;9.884;2023-11-25T13:30:28;1.50;99.90
20041;DHT22;10181;48.072;9.884;2023-11-25T13:32:54;1.50;99.90
20041;DHT22;10181;48.072;9.884;2023-11-25T13:35:19;1.60;99.90
20041;DHT22;10181;48.072;9.884;2023-11-25T13:37:45;1.60;99.90
20041;DHT22;10181;48.072;9.884;2023-11-25T13:40:11;1.60;99.90
20041;DHT22;10181;48.072;9.884;2023-11-25T13:42:42;1.60;99.90
20041;DHT22;10181;48.072;9.884;2023-11-25T13:45:07;1.60;99.90
20041;DHT22;10181;48.072;9.884;2023-11-25T13:47:36;1.60;99.90
20041;DHT22;10181;48.072;9.884;2023-11-25T13:50:03;1.50;99.90
20041;DHT22;10181;48.072;9.884;2023-11-25T13:52:29;1.50;99.90
20041;DHT22;10181;48.072;9.884;2023-11-25T13:54:54;1.50;99.90
20041;DHT22;10181;48.072;9.884;2023-11-25T13:57:20;1.40;99.90
20041;DHT22;10181;48.072;9.884;2023-11-25T13:59:46;1.30;99.90
20041;DHT22;10181;48.072;9.884;2023-11-25T14:02:11;1.40;99.90
20041;DHT22;10181;48.072;9.884;2023-11-25T14:04:38;1.40;99.90
20041;DHT22;10181;48.072;9.884;2023-11-25T14:07:04;1.40;99.90
20041;DHT22;10181;48.072;9.884;2023-11-25T14:09:30;1.40;99.90
20041;DHT22;10181;48.072;9.884;2023-11-25T14:11:56;1.40;99.90
20041;DHT22;10181;48.072;9.884;2023-11-25T14:14:22;1.40;99.90
20041;DHT22;10181;48.072;9.884;2023-11-25T14:16:51;1.40;99.90
20041;DHT22;10181;48.072;9.884;2023-11-25T14:19:16;1.50;99.90
20041;DHT22;10181;48.072;9.884;2023-11-25T14:21:45;1.40;99.90
20041;DHT22;10181;48.072;9.884;2023-11-25T14:24:11;1.40;99.90
20041;DHT22;10181;48.072;9.884;2023-11-25T14:26:36;1.30;99.90
20041;DHT22;10181;48.072;9.884;2023-11-25T14:29:03;1.40;99.90
20041;DHT22;10181;48.072;9.884;2023-11-25T14:31:28;1.40;99.90
20041;DHT22;10181;48.072;9.884;2023-11-25T14:33:58;1.50;99.90
20041;DHT22;10181;48.072;9.884;2023-11-25T14:36:25;1.50;99.90
20041;DHT22;10181;48.072;9.884;2023-11-25T14:38:50;1.50;99.90
20041;DHT22;10181;48.072;9.884;2023-11-25T14:41:21;1.50;99.90
20041;DHT22;10181;48.072;9.884;2023-11-25T14:43:47;1.50;99.90
20041;DHT22;10181;48.072;9.884;2023-11-25T14:46:13;1.50;99.90
20041;DHT22;10181;48.072;9.884;2023-11-25T14:48:38;1.40;99.90
20041;DHT22;10181;48.072;9.884;2023-11-25T14:51:04;1.40;99.90
20041;DHT22;10181;48.072;9.884;2023-11-25T14:53:29;1.40;99.90
20041;DHT22;10181;48.072;9.884;2023-11-25T14:55:55;1.40;99.90
20041;DHT22;10181;48.072;9.884;2023-11-25T14:58:21;1.40;99.90
20041;DHT22;10181;48.072;9.884;2023-11-25T15:00:47;1.40;99.90
20041;DHT22;10181;48.072;9.884;2023-11-25T15:03:12;1.40;99.90
20041;DHT22;10181;48.072;9.884;2023-11-25T15:05:38;1.40;99.90
20041;DHT22;10181;48.072;9.884;2023-11-25T15:08:04;1.30;99.90
20041;DHT22;10181;48.072;9.884;2023-11-25T15:10:30;1.30;99.90
20041;DHT22;10181;48.072;9.884;2023-11-25T15:12:55;1.30;99.90
20041;DHT22;10181;48.072;9.884;2023-11-25T15:15:21;1.30;99.90
20041;DHT22;10181;48.072;9.884;2023-11-25T15:17:46;1.30;99.90
20041;DHT22;10181;48.072;9.884;2023-11-25T15:20:12;1.20;99.90
20041;DHT22;10181;48.072;9.884;2023-11-25T15:22:39;1.20;99.90
20041;DHT22;10181;48.072;9.884;2023-11-25T15:25:05;1.20;99.90
20041;DHT22;10181;48.072;9.884;2023-11-25T15:27:32;1.20;99.90
20041;DHT22;10181;48.072;9.884;2023-11-25T15:30:03;1.10;99.90
20041;DHT22;10181;48.072;9.884;2023-11-25T15:32:36;1.10;99.90
20041;DHT22;10181;48.072;9.884;2023-11-25T15:35:02;0.90;99.90
20041;DHT22;10181;48.072;9.884;2023-11-25T15:37:29;0.90;99.90
20041;DHT22;10181;48.072;9.884;2023-11-25T15:39:55;0.90;99.90
20041;DHT22;10181;48.072;9.884;2023-11-25T15:42:20;1.00;99.90
20041;DHT22;10181;48.072;9.884;2023-11-25T15:44:46;1.00;99.90
20041;DHT22;10181;48.072;9.884;2023-11-25T15:47:12;1.00;99.90
20041;DHT22;10181;48.072;9.884;2023-11-25T15:49:38;0.90;99.90
20041;DHT22;10181;48.072;9.884;2023-11-25T15:52:04;0.90;99.90
20041;DHT22;10181;48.072;9.884;2023-11-25T15:54:29;0.90;99.90
20041;DHT22;10181;48.072;9.884;2023-11-25T15:56:58;0.90;99.90
20041;DHT22;10181;48.072;9.884;2023-11-25T15:59:24;0.90;99.90
20041;DHT22;10181;48.072;9.884;2023-11-25T16:01:50;0.90;99.90